Time;durP1;ratioP1;P1;durP2;ratioP2;P2;SDS_P1;SDS_P2;PMS_P1;PMS_P2;Temp;Humidity;BMP_temperature;BMP_pressure;BME280_temperature;BME280_humidity;BME280_pressure;Samples;Min_cycle;Max_cycle;Signal;HPM_P1;HPM_P2
2022/12/11 00:01:38;;;;;;;0.83;0.60;;;3.90;99.90;5.00;95078.00;;;;5031490;28;20213;-62
2022/12/11 00:04:27;;;;;;;0.70;0.57;;;3.90;99.90;4.80;95081.00;;;;5018774;28;20205;-62
2022/12/11 00:07:16;;;;;;;0.97;0.97;;;3.90;99.90;5.10;95075.00;;;;5027928;28;20229;-65
2022/12/11 00:10:07;;;;;;;0.50;0.50;;;3.90;99.90;4.90;95085.00;;;;5031733;28;20201;-66
2022/12/11 00:12:57;;;;;;;0.70;0.70;;;3.90;99.90;4.80;95074.00;;;;5030572;28;20212;-70
2022/12/11 00:15:45;;;;;;;0.50;0.50;;;3.90;99.90;5.00;95081.00;;;;5030808;28;20217;-67
2022/12/11 00:18:34;;;;;;;1.03;0.70;;;3.90;99.90;5.00;95070.00;;;;5031036;28;20201;-64
2022/12/11 00:21:23;;;;;;;1.20;0.77;;;4.00;99.90;5.20;95067.00;;;;5039732;28;20207;-63
2022/12/11 00:24:12;;;;;;;1.50;1.00;;;4.00;99.90;5.10;95066.00;;;;5030935;28;20205;-64
2022/12/11 00:27:01;;;;;;;0.60;0.50;;;4.00;99.90;4.70;95056.00;;;;5017785;28;20225;-62
2022/12/11 00:29:51;;;;;;;0.70;0.53;;;4.00;99.90;5.10;95074.00;;;;5029808;28;20205;-64
2022/12/11 00:32:39;;;;;;;0.60;0.50;;;3.90;99.90;5.20;95084.00;;;;5030121;28;20197;-63
2022/12/11 00:35:28;;;;;;;0.63;0.63;;;3.90;99.90;5.10;95085.00;;;;5030742;28;20217;-62
2022/12/11 00:38:19;;;;;;;0.47;0.47;;;3.90;99.90;5.20;95088.00;;;;5030520;28;20221;-63
2022/12/11 00:41:08;;;;;;;0.70;0.50;;;3.90;99.90;4.80;95089.00;;;;5029410;28;20201;-65
2022/12/11 00:43:57;;;;;;;0.60;0.60;;;3.90;99.90;4.90;95097.00;;;;5022450;28;20196;-64
2022/12/11 00:46:48;;;;;;;0.57;0.57;;;3.90;99.90;4.70;95073.00;;;;5033845;28;20234;-62
2022/12/11 00:49:36;;;;;;;0.60;0.60;;;3.90;99.90;4.90;95098.00;;;;5016440;28;20197;-63
2022/12/11 00:52:25;;;;;;;0.87;0.70;;;3.90;99.90;5.20;95092.00;;;;5029638;28;20205;-63
2022/12/11 00:55:14;;;;;;;0.70;0.50;;;4.00;99.90;5.00;95098.00;;;;5030770;28;20236;-62
2022/12/11 00:58:02;;;;;;;0.87;0.60;;;3.90;99.90;4.90;95100.00;;;;5030077;28;20340;-61
2022/12/11 01:00:52;;;;;;;0.73;0.60;;;3.90;99.90;5.00;95087.00;;;;5031045;28;20205;-67
2022/12/11 01:03:42;;;;;;;0.40;0.40;;;3.90;99.90;5.20;95103.00;;;;5026320;28;20205;-64
2022/12/11 01:06:30;;;;;;;0.93;0.83;;;4.00;99.90;5.10;95113.00;;;;5029905;28;20715;-68
2022/12/11 01:12:27;;;;;;;1.00;0.87;;;3.90;99.90;5.00;95119.00;;;;5007159;28;20197;-65
2022/12/11 01:15:16;;;;;;;0.50;0.50;;;3.90;99.90;5.10;95105.00;;;;5023623;28;20221;-65
2022/12/11 01:18:05;;;;;;;0.63;0.50;;;3.80;99.90;5.20;95113.00;;;;5015454;28;20697;-65
2022/12/11 01:20:55;;;;;;;0.63;0.63;;;3.80;99.90;5.10;95121.00;;;;5026251;28;20227;-65
2022/12/11 01:23:44;;;;;;;0.53;0.50;;;3.80;99.90;5.20;95122.00;;;;5024011;28;20201;-65
2022/12/11 01:26:33;;;;;;;0.93;0.87;;;3.80;99.90;4.90;95133.00;;;;5030898;28;20232;-64
2022/12/11 01:29:21;;;;;;;1.57;1.20;;;3.80;99.90;5.20;95147.00;;;;5028562;28;20193;-65
2022/12/11 01:32:10;;;;;;;0.47;0.47;;;3.80;99.90;5.30;95144.00;;;;5024038;28;20206;-66
2022/12/11 01:34:59;;;;;;;0.70;0.70;;;3.90;99.90;5.10;95153.00;;;;5031671;28;20229;-65
2022/12/11 01:37:49;;;;;;;2.20;0.70;;;3.90;99.90;5.00;95143.00;;;;5022317;28;20233;-66
2022/12/11 01:40:38;;;;;;;0.67;0.67;;;3.90;99.90;5.30;95161.00;;;;5033887;28;20595;-66
2022/12/11 01:43:26;;;;;;;0.57;0.57;;;4.00;99.90;5.00;95162.00;;;;5028126;28;20216;-64
2022/12/11 01:46:15;;;;;;;0.80;0.80;;;4.00;99.90;5.10;95155.00;;;;5030288;28;20209;-67
2022/12/11 01:49:08;;;;;;;3.83;0.80;;;4.00;99.90;5.10;95164.00;;;;5028383;28;20210;-65
2022/12/11 01:52:01;;;;;;;0.50;0.50;;;3.90;99.90;5.20;95162.00;;;;5030651;28;20205;-64
2022/12/11 01:54:51;;;;;;;0.53;0.53;;;3.90;99.90;5.20;95173.00;;;;5017711;28;20236;-64
2022/12/11 01:57:44;;;;;;;0.37;0.37;;;4.00;99.90;4.90;95159.00;;;;5031135;28;20220;-66
2022/12/11 02:00:32;;;;;;;0.67;0.60;;;3.90;99.90;5.10;95170.00;;;;5033722;28;20228;-64
2022/12/11 02:03:22;;;;;;;0.40;0.40;;;3.90;99.90;4.70;95165.00;;;;5022912;28;20576;-66
2022/12/11 02:06:32;;;;;;;0.60;0.47;;;3.80;99.90;5.00;95169.00;;;;5026630;28;20205;-66
2022/12/11 02:09:25;;;;;;;0.70;0.50;;;3.90;99.90;5.00;95170.00;;;;5028850;28;20189;-66
2022/12/11 02:12:22;;;;;;;1.60;0.43;;;4.00;99.90;5.20;95168.00;;;;5027820;28;20201;-66
2022/12/11 02:15:22;;;;;;;0.50;0.50;;;3.90;99.90;5.20;95185.00;;;;5033980;28;20227;-65
2022/12/11 02:18:21;;;;;;;0.30;0.30;;;4.00;99.90;4.70;95186.00;;;;5017842;28;20275;-67
2022/12/11 02:21:19;;;;;;;0.50;0.50;;;3.90;99.90;4.90;95171.00;;;;5031833;28;20217;-61
2022/12/11 02:24:37;;;;;;;0.53;0.53;;;3.90;99.90;5.10;95182.00;;;;5030786;28;20205;-65
2022/12/11 02:27:36;;;;;;;0.43;0.40;;;3.90;99.90;5.10;95181.00;;;;5030219;28;20228;-66
2022/12/11 02:30:27;;;;;;;2.30;0.57;;;3.90;99.90;5.10;95183.00;;;;5020921;28;20212;-64
2022/12/11 02:33:16;;;;;;;0.60;0.60;;;3.90;99.90;5.00;95175.00;;;;5032871;28;20197;-64
2022/12/11 02:36:07;;;;;;;0.50;0.40;;;3.90;99.90;5.00;95176.00;;;;5033455;28;20382;-67
2022/12/11 02:38:59;;;;;;;0.40;0.40;;;3.90;99.90;4.70;95176.00;;;;5032632;28;20228;-64
2022/12/11 02:41:51;;;;;;;0.90;0.40;;;3.80;99.90;4.60;95153.00;;;;5032340;28;20705;-69
2022/12/11 02:44:41;;;;;;;0.40;0.40;;;3.80;99.90;4.80;95178.00;;;;5025893;28;20586;-64
2022/12/11 02:47:32;;;;;;;0.37;0.37;;;3.70;99.90;4.50;95179.00;;;;5033822;28;20252;-64
2022/12/11 02:50:23;;;;;;;0.60;0.60;;;3.80;99.90;4.40;95173.00;;;;5030880;28;20677;-71
2022/12/11 02:53:16;;;;;;;0.60;0.60;;;3.80;99.90;4.80;95179.00;;;;5022175;28;20209;-71
2022/12/11 02:56:12;;;;;;;0.90;0.60;;;3.80;99.90;4.40;95178.00;;;;5037363;28;20279;-63
2022/12/11 02:59:06;;;;;;;0.53;0.50;;;3.60;99.90;4.70;95194.00;;;;5029792;28;20208;-65
2022/12/11 03:01:55;;;;;;;0.40;0.40;;;3.70;99.90;4.60;95202.00;;;;5031668;28;20673;-64
2022/12/11 03:04:48;;;;;;;0.33;0.30;;;3.60;99.90;4.40;95192.00;;;;5032083;28;20879;-68
2022/12/11 03:07:40;;;;;;;0.30;0.30;;;3.60;99.90;4.20;95185.00;;;;5031396;28;20706;-61
2022/12/11 03:10:29;;;;;;;0.53;0.53;;;3.60;99.90;4.60;95187.00;;;;5032231;28;20233;-63
2022/12/11 03:13:20;;;;;;;1.03;0.73;;;3.60;99.90;4.60;95205.00;;;;5017690;28;20194;-67
2022/12/11 03:16:17;;;;;;;0.93;0.60;;;3.60;99.90;4.60;95192.00;;;;5031110;28;20244;-66
2022/12/11 03:19:16;;;;;;;0.50;0.50;;;3.60;99.90;4.10;95192.00;;;;5027619;28;20197;-71
2022/12/11 03:22:11;;;;;;;0.67;0.67;;;3.50;99.90;4.60;95202.00;;;;5032339;28;20586;-67
2022/12/11 03:25:03;;;;;;;3.50;0.43;;;3.50;99.90;4.60;95198.00;;;;5034560;28;20428;-65
2022/12/11 03:27:58;;;;;;;2.20;1.00;;;3.40;99.90;4.50;95201.00;;;;5026019;28;20225;-65
2022/12/11 03:30:50;;;;;;;0.80;0.80;;;3.40;99.90;4.30;95196.00;;;;5023475;28;20444;-64
2022/12/11 03:33:42;;;;;;;0.80;0.60;;;3.30;99.90;4.20;95196.00;;;;5032838;28;20597;-66
2022/12/11 03:36:35;;;;;;;0.77;0.67;;;3.30;99.90;4.30;95189.00;;;;5037013;28;20222;-66
2022/12/11 03:39:32;;;;;;;0.70;0.40;;;3.30;99.90;4.40;95174.00;;;;5021221;28;20205;-66
2022/12/11 03:42:23;;;;;;;0.73;0.73;;;3.20;99.90;4.40;95180.00;;;;5030560;28;20202;-66
2022/12/11 03:45:13;;;;;;;0.77;0.60;;;3.20;99.90;4.20;95177.00;;;;5031559;28;20478;-66
2022/12/11 03:48:03;;;;;;;0.63;0.63;;;3.10;99.90;4.20;95178.00;;;;5030882;28;20233;-66
2022/12/11 03:50:52;;;;;;;2.40;0.70;;;3.10;99.90;4.30;95174.00;;;;5036902;28;20209;-66
2022/12/11 03:53:41;;;;;;;0.70;0.70;;;3.10;99.90;4.30;95173.00;;;;5025901;28;20409;-65
2022/12/11 03:56:34;;;;;;;1.10;0.70;;;3.10;99.90;4.20;95165.00;;;;5030530;28;20225;-63
2022/12/11 03:59:23;;;;;;;0.80;0.70;;;3.00;99.90;4.10;95166.00;;;;5027038;28;20796;-64
2022/12/11 04:02:12;;;;;;;0.80;0.80;;;3.10;99.90;4.20;95174.00;;;;5028891;28;20435;-66
2022/12/11 04:05:00;;;;;;;1.40;0.93;;;3.00;99.90;4.00;95162.00;;;;5033508;28;20421;-67
2022/12/11 04:07:49;;;;;;;3.00;1.17;;;2.90;99.90;4.10;95151.00;;;;5021796;28;20440;-65
2022/12/11 04:10:38;;;;;;;0.70;0.70;;;2.90;99.90;4.00;95162.00;;;;5022742;28;20428;-65
2022/12/11 04:13:28;;;;;;;2.17;0.90;;;2.80;99.90;3.70;95143.00;;;;5033095;28;20201;-65
2022/12/11 04:16:16;;;;;;;0.53;0.53;;;2.80;99.90;4.00;95149.00;;;;5031397;28;20271;-64
2022/12/11 04:25:16;;;;;;;1.57;0.83;;;2.70;99.90;4.10;95159.00;;;;5029544;28;20428;-65
2022/12/11 04:28:04;;;;;;;0.70;0.60;;;2.70;99.90;3.50;95156.00;;;;5028968;28;20455;-61
2022/12/11 04:30:55;;;;;;;1.93;1.10;;;2.70;99.90;4.10;95159.00;;;;5031479;28;20655;-62
2022/12/11 04:33:43;;;;;;;0.93;0.83;;;2.80;99.90;4.10;95156.00;;;;5025068;28;20420;-63
2022/12/11 04:36:32;;;;;;;1.83;1.53;;;2.80;99.90;3.90;95151.00;;;;5030574;28;20472;-63
2022/12/11 04:39:21;;;;;;;0.97;0.97;;;2.80;99.90;4.00;95154.00;;;;5030016;28;20455;-65
2022/12/11 04:42:10;;;;;;;1.20;1.10;;;2.90;99.90;4.20;95159.00;;;;5029552;28;20435;-64
2022/12/11 04:44:58;;;;;;;1.20;1.10;;;3.00;99.90;4.30;95162.00;;;;5031204;28;20927;-63
2022/12/11 04:47:48;;;;;;;1.47;1.27;;;3.00;99.90;4.30;95155.00;;;;5021643;28;20994;-61
2022/12/11 04:50:37;;;;;;;1.20;1.10;;;3.10;99.90;4.40;95142.00;;;;5033650;28;20416;-63
2022/12/11 04:53:27;;;;;;;1.60;1.43;;;3.10;99.90;4.40;95131.00;;;;5028425;28;20997;-62
2022/12/11 04:56:16;;;;;;;1.27;1.20;;;3.10;99.90;4.30;95143.00;;;;5018684;28;20468;-62
2022/12/11 04:59:05;;;;;;;2.13;1.30;;;3.10;99.90;4.40;95152.00;;;;5030669;28;20443;-61
2022/12/11 05:01:54;;;;;;;1.70;1.07;;;3.10;99.90;4.30;95144.00;;;;5030513;28;20439;-63
2022/12/11 05:04:44;;;;;;;2.47;1.20;;;3.00;99.90;4.40;95165.00;;;;5032819;28;20201;-63
2022/12/11 05:07:33;;;;;;;2.10;1.60;;;3.10;99.90;4.30;95157.00;;;;5036390;28;20607;-64
2022/12/11 05:10:21;;;;;;;3.27;1.20;;;3.00;99.90;4.40;95153.00;;;;5030856;28;20432;-65
2022/12/11 05:13:10;;;;;;;2.33;1.47;;;3.10;99.90;4.40;95165.00;;;;5030351;28;20448;-63
2022/12/11 05:15:59;;;;;;;0.80;0.80;;;3.10;99.90;4.20;95146.00;;;;5024228;28;20803;-65
2022/12/11 05:18:48;;;;;;;1.23;1.00;;;3.00;99.90;4.40;95160.00;;;;5020738;28;20206;-63
2022/12/11 05:21:38;;;;;;;1.10;1.00;;;3.10;99.90;4.50;95162.00;;;;5029094;28;20989;-66
2022/12/11 05:24:26;;;;;;;1.37;1.23;;;3.10;99.90;4.40;95153.00;;;;5029409;28;20251;-66
2022/12/11 05:27:15;;;;;;;1.47;1.00;;;3.10;99.90;4.30;95160.00;;;;5026409;28;20456;-65
2022/12/11 05:30:06;;;;;;;1.70;1.03;;;3.10;99.90;4.10;95161.00;;;;5027970;28;20971;-62
2022/12/11 05:32:54;;;;;;;0.80;0.80;;;3.10;99.90;4.30;95173.00;;;;5030162;28;20213;-62
2022/12/11 05:35:48;;;;;;;1.43;1.30;;;3.10;99.90;4.40;95176.00;;;;5030692;28;20415;-62
2022/12/11 05:38:38;;;;;;;1.30;1.20;;;3.10;99.90;4.30;95174.00;;;;5025975;28;20204;-62
2022/12/11 05:41:29;;;;;;;0.70;0.70;;;3.00;99.90;4.40;95195.00;;;;5033465;28;20956;-64
2022/12/11 05:44:17;;;;;;;0.83;0.80;;;3.10;99.90;4.30;95191.00;;;;5029022;28;20438;-62
2022/12/11 05:47:07;;;;;;;1.30;1.00;;;3.10;99.90;4.30;95195.00;;;;5022706;28;20229;-62
2022/12/11 05:49:56;;;;;;;0.70;0.70;;;3.10;99.90;4.30;95195.00;;;;5030140;28;20439;-63
2022/12/11 05:52:45;;;;;;;1.37;1.07;;;3.10;99.90;4.30;95208.00;;;;5027696;28;20421;-61
2022/12/11 05:55:36;;;;;;;0.97;0.87;;;3.10;99.90;4.10;95186.00;;;;5029558;28;20444;-70
2022/12/11 05:58:25;;;;;;;0.87;0.60;;;3.10;99.90;4.00;95203.00;;;;5029259;28;20475;-65
2022/12/11 06:01:17;;;;;;;1.13;0.87;;;3.10;99.90;4.10;95204.00;;;;5030700;28;20420;-65
2022/12/11 06:04:09;;;;;;;1.27;1.10;;;3.10;99.90;4.40;95224.00;;;;5029679;28;20423;-63
2022/12/11 06:06:58;;;;;;;1.23;1.13;;;3.20;99.90;4.40;95216.00;;;;5028908;28;20440;-62
2022/12/11 06:09:46;;;;;;;1.10;1.00;;;3.20;99.90;4.50;95234.00;;;;5029162;28;20416;-63
2022/12/11 06:12:37;;;;;;;1.30;1.20;;;3.10;99.90;4.30;95236.00;;;;5025831;28;20678;-61
2022/12/11 06:15:25;;;;;;;1.93;1.20;;;3.20;99.90;4.40;95246.00;;;;5026740;28;20447;-62
2022/12/11 06:18:14;;;;;;;0.80;0.80;;;3.20;99.90;4.20;95224.00;;;;5028034;28;20223;-63
2022/12/11 06:21:11;;;;;;;1.33;1.03;;;3.10;99.90;4.00;95254.00;;;;5028476;28;20435;-64
2022/12/11 06:24:03;;;;;;;1.30;1.20;;;3.10;99.90;4.30;95252.00;;;;5029145;28;20213;-63
2022/12/11 06:26:51;;;;;;;1.53;1.30;;;3.20;99.90;4.40;95260.00;;;;5026820;28;20449;-63
2022/12/11 06:29:41;;;;;;;1.23;1.03;;;3.10;99.90;4.20;95248.00;;;;5013890;28;20440;-64
2022/12/11 06:32:30;;;;;;;2.33;1.50;;;3.20;99.90;4.10;95246.00;;;;5027365;28;20443;-65
2022/12/11 06:35:19;;;;;;;0.70;0.70;;;3.10;99.90;4.20;95263.00;;;;5028266;28;20817;-67
2022/12/11 06:38:08;;;;;;;0.83;0.83;;;3.10;99.90;4.00;95275.00;;;;5028648;28;20236;-64
2022/12/11 06:40:56;;;;;;;1.30;1.20;;;3.10;99.90;4.10;95277.00;;;;5027759;28;20421;-64
2022/12/11 06:43:45;;;;;;;1.07;0.90;;;3.10;99.50;4.00;95274.00;;;;5016321;28;20417;-64
2022/12/11 06:46:35;;;;;;;1.50;1.40;;;3.10;99.30;4.30;95274.00;;;;5030695;28;20224;-65
2022/12/11 06:49:24;;;;;;;1.47;1.10;;;3.10;99.70;4.10;95266.00;;;;5031656;28;20201;-65
2022/12/11 06:52:13;;;;;;;1.10;1.03;;;3.20;99.70;4.20;95265.00;;;;5029523;28;20435;-64
2022/12/11 06:55:07;;;;;;;1.20;1.00;;;3.10;99.70;4.10;95273.00;;;;5032313;28;20205;-64
2022/12/11 06:57:56;;;;;;;1.60;1.23;;;3.10;99.50;4.30;95272.00;;;;5031943;28;20483;-62
2022/12/11 07:00:44;;;;;;;1.03;0.87;;;3.10;99.60;4.20;95261.00;;;;5030509;28;20443;-64
2022/12/11 07:03:34;;;;;;;1.00;1.00;;;3.10;99.90;4.00;95273.00;;;;5031123;28;20790;-63
2022/12/11 07:06:24;;;;;;;1.23;1.13;;;3.10;99.20;4.00;95268.00;;;;5029767;28;20224;-64
2022/12/11 07:09:13;;;;;;;1.60;1.50;;;3.10;98.90;4.30;95270.00;;;;5026577;28;20428;-66
2022/12/11 07:12:02;;;;;;;2.10;1.33;;;3.10;99.90;4.40;95270.00;;;;5031532;28;20413;-66
2022/12/11 07:14:51;;;;;;;2.37;1.73;;;3.10;99.90;4.00;95266.00;;;;5032599;28;20244;-70
2022/12/11 07:17:40;;;;;;;1.17;1.07;;;3.10;98.50;4.30;95280.00;;;;5018128;28;20230;-66
2022/12/11 07:20:30;;;;;;;1.13;1.03;;;3.10;99.30;4.30;95284.00;;;;5021649;28;20227;-65
2022/12/11 07:23:19;;;;;;;0.83;0.83;;;3.10;99.60;4.30;95277.00;;;;5029207;28;20431;-64
2022/12/11 07:26:10;;;;;;;1.57;1.20;;;3.00;99.30;4.50;95288.00;;;;5030905;28;20224;-63
2022/12/11 07:29:00;;;;;;;2.53;1.53;;;3.20;99.90;4.40;95298.00;;;;5021721;28;20685;-64
2022/12/11 07:31:49;;;;;;;3.17;1.93;;;3.20;98.90;4.30;95298.00;;;;5031643;28;20435;-63
2022/12/11 07:34:38;;;;;;;1.57;1.47;;;3.10;97.90;4.50;95291.00;;;;5030461;28;20428;-63
2022/12/11 07:37:28;;;;;;;1.17;1.07;;;3.20;98.10;4.30;95298.00;;;;5028660;28;20281;-65
2022/12/11 07:40:17;;;;;;;2.57;1.77;;;3.20;99.30;4.20;95298.00;;;;5027091;28;20213;-62
2022/12/11 07:43:06;;;;;;;1.63;1.30;;;3.20;98.00;4.50;95299.00;;;;5028640;28;20213;-61
2022/12/11 07:45:55;;;;;;;1.33;1.23;;;3.20;98.90;4.30;95290.00;;;;5032693;28;20210;-62
2022/12/11 07:48:46;;;;;;;1.23;1.10;;;3.30;99.90;4.10;95292.00;;;;5045810;28;20750;-63
2022/12/11 07:51:37;;;;;;;1.47;1.37;;;3.20;97.60;4.50;95301.00;;;;5029639;28;20608;-64
2022/12/11 07:54:27;;;;;;;2.73;1.47;;;3.00;97.70;4.20;95295.00;;;;5015882;28;20432;-62
2022/12/11 07:57:16;;;;;;;2.53;1.60;;;3.20;97.00;4.30;95306.00;;;;5020917;28;20770;-65
2022/12/11 08:00:07;;;;;;;2.77;1.50;;;3.20;96.00;4.60;95304.00;;;;5025687;28;20422;-66
2022/12/11 08:02:55;;;;;;;1.90;1.37;;;3.30;96.30;4.60;95292.00;;;;5019886;28;20250;-66
2022/12/11 08:05:49;;;;;;;1.13;1.03;;;3.30;96.60;4.60;95309.00;;;;5033419;28;20439;-66
2022/12/11 08:08:38;;;;;;;2.13;1.43;;;3.40;97.20;4.70;95317.00;;;;5027635;28;20201;-65
2022/12/11 08:11:29;;;;;;;2.77;1.73;;;3.40;95.90;4.60;95318.00;;;;5036211;28;20524;-63
2022/12/11 08:14:18;;;;;;;1.60;1.47;;;3.40;95.30;4.40;95316.00;;;;5035113;28;20205;-64
2022/12/11 08:17:07;;;;;;;1.93;1.70;;;3.40;95.50;4.50;95325.00;;;;5039502;28;20241;-65
2022/12/11 08:19:55;;;;;;;1.50;1.23;;;3.40;95.30;4.60;95332.00;;;;5034399;28;20205;-66
2022/12/11 08:22:44;;;;;;;3.77;2.33;;;3.50;94.90;4.60;95322.00;;;;5031149;28;20202;-66
2022/12/11 08:25:33;;;;;;;1.37;1.10;;;3.50;95.50;4.30;95320.00;;;;5035689;28;20200;-67
2022/12/11 08:28:23;;;;;;;2.07;1.50;;;3.40;94.70;4.70;95333.00;;;;5023232;28;20463;-65
2022/12/11 08:31:14;;;;;;;1.33;1.23;;;3.50;95.50;4.70;95323.00;;;;5022483;28;20241;-62
2022/12/11 08:34:03;;;;;;;1.80;1.50;;;3.60;95.30;4.90;95325.00;;;;5022086;28;20252;-62
2022/12/11 08:36:52;;;;;;;1.43;1.20;;;3.60;95.10;4.40;95307.00;;;;5026209;28;20225;-69
2022/12/11 08:39:42;;;;;;;2.37;1.60;;;3.60;94.60;5.00;95325.00;;;;5025468;28;20301;-64
2022/12/11 08:42:33;;;;;;;2.17;1.50;;;3.60;95.00;4.00;95329.00;;;;5022867;28;20678;-65
2022/12/11 08:45:25;;;;;;;2.10;1.40;;;3.60;93.50;4.80;95342.00;;;;5031885;28;20694;-62
2022/12/11 08:48:15;;;;;;;1.30;1.20;;;3.60;94.40;5.00;95337.00;;;;5026464;28;20229;-63
2022/12/11 08:51:06;;;;;;;1.47;1.17;;;3.70;94.90;4.40;95339.00;;;;5031166;28;20212;-66
2022/12/11 08:53:56;;;;;;;1.67;1.50;;;3.70;93.50;4.90;95345.00;;;;5026044;28;20224;-63
2022/12/11 08:56:45;;;;;;;2.40;1.73;;;3.70;94.30;5.10;95343.00;;;;5023003;28;20221;-63
2022/12/11 08:59:33;;;;;;;1.43;1.33;;;3.80;94.60;5.30;95343.00;;;;5023063;28;20237;-63
2022/12/11 09:02:24;;;;;;;2.00;1.77;;;3.80;94.60;5.10;95344.00;;;;5025854;28;20193;-66
2022/12/11 09:05:12;;;;;;;2.03;1.57;;;3.80;94.60;4.80;95332.00;;;;5028566;28;20201;-64
2022/12/11 09:08:01;;;;;;;2.67;1.80;;;3.80;92.90;5.00;95340.00;;;;5027789;28;20356;-64
2022/12/11 09:10:50;;;;;;;1.33;1.10;;;3.80;93.60;4.50;95322.00;;;;5021054;28;20207;-62
2022/12/11 09:13:40;;;;;;;1.77;1.50;;;3.80;93.60;4.70;95326.00;;;;5027847;28;20212;-63
2022/12/11 09:16:30;;;;;;;2.57;1.90;;;3.70;92.70;5.30;95330.00;;;;5024412;28;20225;-62
2022/12/11 09:19:20;;;;;;;0.87;0.53;;;3.80;93.40;4.30;95327.00;;;;5024125;28;20719;-63
2022/12/11 09:22:10;;;;;;;1.67;1.57;;;3.80;92.30;4.70;95324.00;;;;5024739;28;20668;-64
2022/12/11 09:24:59;;;;;;;1.50;1.40;;;3.80;92.70;5.10;95333.00;;;;5018118;28;20204;-62
2022/12/11 09:27:47;;;;;;;2.20;1.83;;;3.90;92.80;5.20;95335.00;;;;5030627;28;20275;-65
2022/12/11 09:30:36;;;;;;;1.53;1.30;;;3.80;92.20;4.80;95334.00;;;;5021438;28;20228;-62
2022/12/11 09:33:25;;;;;;;1.50;1.40;;;3.90;92.20;5.00;95342.00;;;;5023584;28;20247;-62
2022/12/11 09:36:15;;;;;;;2.30;1.40;;;3.80;93.00;5.00;95343.00;;;;5024949;28;20691;-67
2022/12/11 09:39:06;;;;;;;2.03;1.60;;;3.90;92.10;4.50;95328.00;;;;5024046;28;20222;-66
2022/12/11 09:42:06;;;;;;;1.80;1.70;;;3.80;91.70;4.60;95330.00;;;;5023344;28;20213;-64
2022/12/11 09:44:58;;;;;;;2.60;1.70;;;5.70;92.50;5.10;95341.00;;;;5026693;28;20212;-64
2022/12/11 09:47:50;;;;;;;3.00;2.20;;;3.90;92.30;4.90;95329.00;;;;5030897;28;20237;-65
2022/12/11 09:50:40;;;;;;;2.40;1.87;;;3.90;91.60;5.00;95332.00;;;;5029022;28;20209;-65
2022/12/11 09:53:36;;;;;;;2.10;1.90;;;3.90;91.20;5.20;95337.00;;;;5029907;28;20221;-62
2022/12/11 09:56:31;;;;;;;1.87;1.50;;;3.90;91.50;5.40;95348.00;;;;5060921;22;20247;-66
2022/12/11 09:59:28;;;;;;;2.87;1.73;;;4.10;92.10;5.40;95346.00;;;;5036766;28;20230;-67
2022/12/11 10:02:33;;;;;;;1.13;1.03;;;4.10;91.20;4.30;95337.00;;;;4997533;28;20202;-68
2022/12/11 10:05:31;;;;;;;1.93;1.77;;;4.00;88.70;4.70;95330.00;;;;5004613;28;21012;-67
2022/12/11 10:08:30;;;;;;;2.13;1.53;;;3.90;88.90;5.10;95348.00;;;;4994247;28;20199;-67
2022/12/11 10:11:46;;;;;;;1.83;1.73;;;3.90;88.80;5.00;95331.00;;;;4979011;28;20575;-66
2022/12/11 10:15:13;;;;;;;2.03;1.60;;;3.90;89.40;5.20;95347.00;;;;4980903;28;20928;-68
2022/12/11 10:18:05;;;;;;;1.00;1.00;;;4.00;90.00;4.90;95337.00;;;;4988183;28;20238;-65
2022/12/11 10:20:55;;;;;;;2.30;2.10;;;4.00;88.70;5.50;95342.00;;;;4985966;28;20670;-67
2022/12/11 10:23:54;;;;;;;2.93;1.63;;;4.10;88.80;5.30;95338.00;;;;4984003;28;20221;-68
2022/12/11 10:26:43;;;;;;;3.17;1.60;;;4.20;87.70;5.40;95335.00;;;;4986248;28;20222;-70
2022/12/11 10:29:32;;;;;;;2.43;2.10;;;4.20;89.20;5.70;95332.00;;;;4984137;28;20219;-66
2022/12/11 10:32:24;;;;;;;2.73;2.30;;;4.30;89.40;6.10;95343.00;;;;4987655;28;20200;-67
2022/12/11 10:35:31;;;;;;;1.80;1.67;;;4.40;89.80;5.10;95345.00;;;;4987813;28;20677;-66
2022/12/11 10:38:27;;;;;;;2.20;1.70;;;4.30;86.40;5.30;95343.00;;;;5015091;28;20203;-68
2022/12/11 10:41:21;;;;;;;1.37;1.10;;;4.40;87.00;4.60;95343.00;;;;4996915;28;20203;-68
2022/12/11 10:44:17;;;;;;;2.30;2.10;;;4.20;83.60;4.70;95347.00;;;;4990408;28;20390;-68
2022/12/11 10:47:10;;;;;;;3.57;2.23;;;4.10;82.90;4.80;95354.00;;;;4990685;28;20231;-68
2022/12/11 10:50:01;;;;;;;2.53;1.83;;;4.00;86.80;5.30;95343.00;;;;4984959;28;20218;-68
2022/12/11 10:52:51;;;;;;;4.03;2.73;;;4.00;86.70;5.40;95349.00;;;;4999221;28;20209;-70
2022/12/11 10:55:45;;;;;;;2.00;1.40;;;4.00;87.10;5.00;95351.00;;;;4991177;28;20202;-68
2022/12/11 10:58:40;;;;;;;2.40;1.80;;;4.10;86.60;5.00;95365.00;;;;4987980;28;20207;-68
2022/12/11 11:01:31;;;;;;;3.00;2.00;;;4.00;87.30;5.00;95353.00;;;;4990665;28;20214;-68
2022/12/11 11:04:25;;;;;;;3.33;1.63;;;3.90;86.20;4.70;95345.00;;;;4986944;28;20210;-70
2022/12/11 11:07:18;;;;;;;2.87;2.50;;;3.90;86.00;5.10;95336.00;;;;4989520;28;20222;-68
2022/12/11 11:10:17;;;;;;;4.17;2.87;;;3.90;86.90;5.10;95344.00;;;;4988825;28;20206;-67
2022/12/11 11:13:05;;;;;;;2.20;1.63;;;3.90;85.80;4.90;95336.00;;;;4986583;28;20220;-67
2022/12/11 11:16:02;;;;;;;2.57;2.30;;;3.80;85.40;4.90;95341.00;;;;4979601;28;20209;-68
2022/12/11 11:18:54;;;;;;;2.83;1.67;;;3.80;86.40;5.00;95346.00;;;;4988592;28;20301;-68
2022/12/11 11:21:51;;;;;;;1.93;1.70;;;3.80;85.70;4.80;95331.00;;;;4988665;28;20670;-68
2022/12/11 11:24:46;;;;;;;3.03;2.27;;;3.80;85.30;5.00;95331.00;;;;4984149;28;20206;-69
2022/12/11 11:27:40;;;;;;;1.50;1.40;;;3.70;86.00;5.10;95324.00;;;;4973117;28;20227;-69
2022/12/11 11:30:31;;;;;;;2.23;1.70;;;3.70;86.80;4.90;95312.00;;;;4984926;28;20206;-69
2022/12/11 11:33:23;;;;;;;2.33;2.13;;;3.70;85.00;5.00;95308.00;;;;5000496;28;20207;-69
2022/12/11 11:36:21;;;;;;;4.37;2.20;;;3.80;85.20;5.50;95309.00;;;;4990549;28;20932;-69
2022/12/11 11:39:25;;;;;;;2.23;2.03;;;3.90;87.40;5.20;95310.00;;;;4987821;28;20227;-69
2022/12/11 11:42:22;;;;;;;1.63;1.53;;;4.00;85.70;5.20;95321.00;;;;5010074;28;20207;-69
2022/12/11 11:45:16;;;;;;;2.37;1.83;;;4.00;85.30;5.50;95321.00;;;;4985530;28;20203;-69
2022/12/11 11:48:22;;;;;;;2.63;2.43;;;4.00;86.00;5.50;95330.00;;;;4987479;28;20694;-68
2022/12/11 11:51:16;;;;;;;2.93;1.70;;;4.10;85.60;5.00;95319.00;;;;4984972;28;20700;-67
2022/12/11 11:54:21;;;;;;;2.03;1.60;;;4.10;82.50;5.10;95323.00;;;;4989364;28;20234;-65
2022/12/11 11:57:18;;;;;;;3.00;1.83;;;4.00;83.50;5.00;95321.00;;;;4993783;28;20234;-68
2022/12/11 12:00:23;;;;;;;2.60;2.10;;;3.80;85.30;5.50;95330.00;;;;4985602;28;20223;-64
2022/12/11 12:03:18;;;;;;;2.77;2.30;;;3.90;85.80;5.10;95328.00;;;;4983365;28;20278;-69
2022/12/11 12:06:18;;;;;;;2.83;2.00;;;4.00;83.70;5.20;95318.00;;;;5013824;28;20215;-65
2022/12/11 12:09:27;;;;;;;2.77;2.30;;;3.90;84.30;5.20;95325.00;;;;4992729;28;20214;-68
2022/12/11 12:12:28;;;;;;;3.33;1.80;;;3.90;85.30;4.50;95313.00;;;;5014420;28;20215;-68
2022/12/11 12:15:31;;;;;;;2.37;2.17;;;3.90;81.90;5.00;95315.00;;;;4980210;28;20229;-68
2022/12/11 12:18:33;;;;;;;2.90;2.03;;;3.80;85.00;4.80;95318.00;;;;4984573;28;20210;-67
2022/12/11 12:21:32;;;;;;;2.23;2.03;;;3.80;82.60;5.00;95317.00;;;;4987555;28;20210;-67
2022/12/11 12:24:33;;;;;;;1.63;1.47;;;3.80;84.20;4.60;95313.00;;;;4975125;28;20199;-68
2022/12/11 12:27:31;;;;;;;1.50;0.93;;;3.70;81.70;3.90;95303.00;;;;5025850;28;20223;-69
2022/12/11 12:30:55;;;;;;;2.50;1.83;;;3.60;80.50;4.30;95316.00;;;;4979883;28;20203;-68
2022/12/11 12:33:55;;;;;;;1.60;1.50;;;3.50;81.60;4.70;95328.00;;;;4986598;28;20218;-68
2022/12/11 12:36:53;;;;;;;2.53;1.70;;;3.50;83.00;4.60;95315.00;;;;4987089;28;20252;-67
2022/12/11 12:39:51;;;;;;;1.20;1.10;;;3.50;82.50;4.50;95322.00;;;;4985232;28;20230;-68
2022/12/11 12:42:51;;;;;;;2.67;1.87;;;3.50;82.80;4.30;95324.00;;;;4981666;28;20213;-69
2022/12/11 12:45:52;;;;;;;1.73;1.63;;;3.50;81.40;4.30;95323.00;;;;5016203;28;20222;-67
2022/12/11 12:48:41;;;;;;;1.73;1.63;;;3.40;81.50;4.10;95318.00;;;;5009637;28;20207;-68
2022/12/11 12:51:30;;;;;;;2.17;1.60;;;3.30;80.00;4.50;95332.00;;;;4984650;28;20735;-68
2022/12/11 12:54:22;;;;;;;4.13;2.40;;;3.20;81.00;4.40;95319.00;;;;4986431;28;20577;-68
2022/12/11 12:57:10;;;;;;;1.93;1.63;;;3.30;82.50;4.60;95325.00;;;;4984114;28;20249;-67
2022/12/11 12:59:59;;;;;;;1.63;1.53;;;3.30;82.40;4.50;95330.00;;;;4987058;28;20222;-67
2022/12/11 13:02:50;;;;;;;2.53;1.60;;;3.30;81.20;4.40;95323.00;;;;4996398;28;20203;-67
2022/12/11 13:05:43;;;;;;;1.77;1.60;;;3.30;81.70;4.30;95328.00;;;;4981919;28;20198;-67
2022/12/11 13:08:41;;;;;;;4.10;1.50;;;3.30;82.00;4.20;95333.00;;;;4987172;28;20195;-68
2022/12/11 13:11:36;;;;;;;1.47;1.37;;;3.20;81.00;3.50;95347.00;;;;4995010;28;20292;-69